Time;durP1;ratioP1;P1;durP2;ratioP2;P2;SDS_P1;SDS_P2;PMS_P1;PMS_P2;Temp;Humidity;BMP_temperature;BMP_pressure;BME280_temperature;BME280_humidity;BME280_pressure;Samples;Min_cycle;Max_cycle;Signal;HPM_P1;HPM_P2
2021/10/23 00:02:20;;;;;;;83.80;23.43;;;;;;;;;;4963131;28;20808;-96
2021/10/23 00:04:46;;;;;;;95.77;28.40;;;;;;;;;;4966893;28;20474;-96
2021/10/23 00:07:14;;;;;;;92.53;24.87;;;;;;;;;;4965687;29;20450;-95
2021/10/23 00:09:41;;;;;;;88.00;24.53;;;;;;;;;;4964058;29;20478;-95
2021/10/23 00:12:08;;;;;;;92.43;24.93;;;;;;;;;;4964495;29;20447;-96
2021/10/23 00:14:34;;;;;;;90.10;24.70;;;;;;;;;;4962766;29;20458;-96
2021/10/23 00:17:01;;;;;;;91.40;24.80;;;;;;;;;;4963010;29;20450;-96
2021/10/23 00:19:28;;;;;;;97.50;28.43;;;;;;;;;;4966113;29;20464;-96
2021/10/23 00:21:54;;;;;;;95.23;28.30;;;;;;;;;;4965272;29;21039;-96
2021/10/23 00:24:22;;;;;;;96.30;27.60;;;;;;;;;;4964929;29;20450;-96
2021/10/23 00:26:49;;;;;;;105.67;30.60;;;;;;;;;;4965400;29;20450;-95
2021/10/23 00:29:15;;;;;;;93.40;26.17;;;;;;;;;;4949591;29;20504;-96
2021/10/23 00:31:42;;;;;;;92.07;26.70;;;;;;;;;;4944794;29;20515;-95
2021/10/23 00:34:08;;;;;;;97.87;28.57;;;;;;;;;;4961641;29;20475;-95
2021/10/23 00:36:35;;;;;;;91.57;26.47;;;;;;;;;;4965367;29;20453;-96
2021/10/23 00:39:02;;;;;;;90.77;25.60;;;;;;;;;;4966831;28;20462;-95
2021/10/23 00:41:30;;;;;;;95.10;26.57;;;;;;;;;;4964961;29;20998;-95
2021/10/23 00:43:56;;;;;;;92.23;26.97;;;;;;;;;;4964043;29;20499;-96
2021/10/23 00:46:23;;;;;;;90.77;26.03;;;;;;;;;;4963956;29;20449;-96
2021/10/23 00:48:49;;;;;;;90.00;25.87;;;;;;;;;;4959002;29;20506;-96
2021/10/23 00:51:17;;;;;;;94.30;27.07;;;;;;;;;;4964832;29;20501;-95
2021/10/23 00:53:44;;;;;;;91.90;25.97;;;;;;;;;;4963936;29;20477;-96
2021/10/23 00:56:10;;;;;;;87.77;24.00;;;;;;;;;;4964675;29;20459;-96
2021/10/23 00:58:39;;;;;;;83.33;22.47;;;;;;;;;;4963759;29;20455;-96
2021/10/23 01:01:06;;;;;;;87.87;23.20;;;;;;;;;;4964038;29;20446;-96
2021/10/23 01:03:32;;;;;;;87.90;23.80;;;;;;;;;;4963022;29;20470;-96
2021/10/23 01:05:59;;;;;;;86.23;22.93;;;;;;;;;;4966389;28;20463;-94
2021/10/23 01:08:25;;;;;;;84.37;22.77;;;;;;;;;;4968058;29;20529;-94
2021/10/23 01:10:52;;;;;;;85.60;21.80;;;;;;;;;;4966976;29;20481;-94
2021/10/23 01:13:19;;;;;;;87.47;24.17;;;;;;;;;;4967813;29;20458;-95
2021/10/23 01:15:47;;;;;;;86.30;23.33;;;;;;;;;;4967213;29;20462;-94
2021/10/23 01:18:13;;;;;;;86.73;23.30;;;;;;;;;;4966482;29;20470;-95
2021/10/23 01:20:41;;;;;;;89.97;24.73;;;;;;;;;;4968353;29;20450;-95
2021/10/23 01:23:08;;;;;;;87.90;24.37;;;;;;;;;;4971443;29;20477;-96
2021/10/23 01:25:35;;;;;;;91.20;24.97;;;;;;;;;;4968404;29;20461;-96
2021/10/23 01:28:03;;;;;;;90.33;24.97;;;;;;;;;;4967781;29;21031;-96
2021/10/23 01:30:30;;;;;;;85.73;23.17;;;;;;;;;;4970924;29;20490;-96
2021/10/23 01:32:57;;;;;;;88.03;24.10;;;;;;;;;;4969126;29;20466;-96
2021/10/23 01:35:24;;;;;;;89.37;23.27;;;;;;;;;;4968413;29;20445;-96
2021/10/23 01:37:54;;;;;;;86.70;22.90;;;;;;;;;;4976485;29;20431;-96
2021/10/23 01:40:23;;;;;;;87.03;23.30;;;;;;;;;;4976653;29;20442;-96
2021/10/23 01:42:49;;;;;;;87.37;23.33;;;;;;;;;;4967501;29;20494;-95
2021/10/23 01:45:16;;;;;;;90.00;24.80;;;;;;;;;;4967592;29;20486;-94
2021/10/23 01:47:43;;;;;;;95.93;23.47;;;;;;;;;;4966527;29;20450;-95
2021/10/23 01:50:13;;;;;;;84.73;22.80;;;;;;;;;;4966417;29;20486;-95
2021/10/23 01:52:39;;;;;;;93.47;25.77;;;;;;;;;;4967180;29;20509;-96
2021/10/23 01:55:08;;;;;;;103.47;29.87;;;;;;;;;;4967329;29;20453;-95
2021/10/23 01:57:35;;;;;;;104.20;30.83;;;;;;;;;;4966791;29;20462;-94
2021/10/23 02:00:01;;;;;;;104.37;30.77;;;;;;;;;;4967125;29;20446;-94
2021/10/23 02:02:28;;;;;;;107.73;32.13;;;;;;;;;;4967079;29;20477;-95
2021/10/23 02:04:54;;;;;;;100.83;30.10;;;;;;;;;;4964963;29;20532;-95
2021/10/23 02:07:21;;;;;;;103.47;31.20;;;;;;;;;;4966454;28;20968;-96
2021/10/23 02:09:47;;;;;;;104.00;30.03;;;;;;;;;;4967278;29;20446;-94
2021/10/23 02:12:15;;;;;;;97.57;28.50;;;;;;;;;;4966747;29;20490;-95
2021/10/23 02:14:42;;;;;;;99.40;28.13;;;;;;;;;;4965050;29;20457;-96
2021/10/23 02:17:09;;;;;;;100.57;28.77;;;;;;;;;;4963509;28;20470;-95
2021/10/23 02:19:35;;;;;;;102.07;29.90;;;;;;;;;;4965663;29;20473;-95
2021/10/23 02:22:02;;;;;;;102.00;29.17;;;;;;;;;;4967257;29;20462;-96
2021/10/23 02:24:28;;;;;;;94.30;26.20;;;;;;;;;;4967577;29;20450;-96
2021/10/23 02:26:55;;;;;;;90.47;25.50;;;;;;;;;;4966583;29;20450;-95
2021/10/23 02:29:23;;;;;;;89.27;25.10;;;;;;;;;;4966012;28;20455;-96
2021/10/23 02:31:50;;;;;;;86.83;22.60;;;;;;;;;;4965254;28;20501;-95
2021/10/23 02:34:16;;;;;;;88.10;23.47;;;;;;;;;;4964768;29;20455;-95
2021/10/23 02:36:43;;;;;;;86.00;23.20;;;;;;;;;;4966457;28;20491;-95
2021/10/23 02:39:09;;;;;;;87.27;24.43;;;;;;;;;;4965313;29;20980;-96
2021/10/23 02:41:36;;;;;;;86.40;21.50;;;;;;;;;;4964538;29;20470;-95
2021/10/23 02:44:03;;;;;;;82.37;20.50;;;;;;;;;;4965667;29;20684;-95
2021/10/23 02:46:31;;;;;;;87.40;21.57;;;;;;;;;;4966186;28;20454;-96
2021/10/23 02:48:57;;;;;;;84.27;22.20;;;;;;;;;;4965048;29;20470;-95
2021/10/23 02:51:24;;;;;;;82.63;21.50;;;;;;;;;;4966246;29;20497;-95
2021/10/23 02:53:50;;;;;;;85.17;21.93;;;;;;;;;;4966196;29;20446;-96
2021/10/23 02:56:17;;;;;;;84.37;21.77;;;;;;;;;;4965020;29;20455;-95
2021/10/23 02:58:43;;;;;;;80.13;19.20;;;;;;;;;;4964928;29;20462;-94
2021/10/23 03:01:10;;;;;;;83.67;20.90;;;;;;;;;;4965212;29;20944;-95
2021/10/23 03:03:38;;;;;;;85.90;21.30;;;;;;;;;;4964121;29;20471;-95
2021/10/23 03:06:04;;;;;;;81.90;20.07;;;;;;;;;;4966135;29;20454;-94
2021/10/23 03:08:30;;;;;;;83.10;21.20;;;;;;;;;;4965545;29;20447;-95
2021/10/23 03:10:57;;;;;;;91.70;23.00;;;;;;;;;;4966049;29;20497;-95
2021/10/23 03:13:24;;;;;;;95.47;27.13;;;;;;;;;;4966016;29;20522;-94
2021/10/23 03:15:53;;;;;;;95.13;25.90;;;;;;;;;;4965572;29;20465;-94
2021/10/23 03:18:19;;;;;;;88.17;23.50;;;;;;;;;;4965965;29;20451;-94
2021/10/23 03:20:47;;;;;;;96.13;25.73;;;;;;;;;;4964102;29;20463;-95
2021/10/23 03:23:16;;;;;;;97.17;28.70;;;;;;;;;;4965624;29;20505;-94
2021/10/23 03:25:42;;;;;;;95.03;27.13;;;;;;;;;;4965614;29;20454;-94
2021/10/23 03:28:09;;;;;;;109.77;29.03;;;;;;;;;;4965175;28;20469;-93
2021/10/23 03:30:35;;;;;;;96.77;27.00;;;;;;;;;;4965051;29;20490;-93
2021/10/23 03:33:02;;;;;;;98.33;28.13;;;;;;;;;;4964990;28;20454;-93
2021/10/23 03:35:28;;;;;;;133.60;30.00;;;;;;;;;;4963481;28;21178;-94
2021/10/23 03:37:56;;;;;;;104.23;27.70;;;;;;;;;;4964688;29;20454;-93
2021/10/23 03:40:23;;;;;;;99.80;27.83;;;;;;;;;;4962935;29;20486;-93
2021/10/23 03:42:49;;;;;;;96.70;26.80;;;;;;;;;;4963008;29;20455;-93
2021/10/23 03:45:16;;;;;;;93.67;26.70;;;;;;;;;;4962675;29;20482;-94
2021/10/23 03:47:42;;;;;;;91.73;24.67;;;;;;;;;;4962683;29;20490;-94
2021/10/23 03:50:09;;;;;;;92.00;23.53;;;;;;;;;;4961791;29;20538;-94
2021/10/23 03:52:36;;;;;;;91.83;24.73;;;;;;;;;;4962803;28;20493;-95
2021/10/23 03:55:05;;;;;;;92.90;25.10;;;;;;;;;;4965444;29;20458;-94
2021/10/23 03:57:31;;;;;;;90.67;24.80;;;;;;;;;;4964589;29;20544;-94
2021/10/23 03:59:58;;;;;;;99.83;25.13;;;;;;;;;;4963787;29;20454;-95
2021/10/23 04:02:24;;;;;;;95.73;24.57;;;;;;;;;;4963734;29;20582;-95
2021/10/23 04:04:51;;;;;;;107.00;30.97;;;;;;;;;;4963224;29;20506;-95
2021/10/23 04:07:17;;;;;;;101.67;28.60;;;;;;;;;;4964117;29;20494;-95
2021/10/23 04:09:44;;;;;;;100.40;29.10;;;;;;;;;;4963307;29;20446;-94
2021/10/23 04:12:12;;;;;;;107.17;32.40;;;;;;;;;;4963081;29;21059;-94
2021/10/23 04:14:38;;;;;;;117.10;35.27;;;;;;;;;;4963613;29;20458;-94
2021/10/23 04:17:05;;;;;;;117.50;34.50;;;;;;;;;;4964599;29;20459;-94
2021/10/23 04:19:32;;;;;;;111.20;34.17;;;;;;;;;;4962527;29;21047;-94
2021/10/23 04:21:58;;;;;;;108.80;33.30;;;;;;;;;;4964058;29;20533;-94
2021/10/23 04:24:25;;;;;;;103.33;31.80;;;;;;;;;;4963277;28;20458;-94
2021/10/23 04:26:52;;;;;;;99.40;29.30;;;;;;;;;;4963421;29;20455;-94
2021/10/23 04:29:20;;;;;;;104.83;29.20;;;;;;;;;;4964264;29;20462;-93
2021/10/23 04:31:47;;;;;;;100.63;30.50;;;;;;;;;;4964269;29;20526;-94
2021/10/23 04:34:13;;;;;;;104.83;29.93;;;;;;;;;;4962087;29;20446;-94
2021/10/23 04:36:40;;;;;;;103.57;29.60;;;;;;;;;;4963254;29;20483;-94
2021/10/23 04:39:06;;;;;;;96.83;27.50;;;;;;;;;;4962874;28;21226;-94
2021/10/23 04:41:33;;;;;;;103.60;29.80;;;;;;;;;;4963544;29;20518;-93
2021/10/23 04:43:59;;;;;;;94.43;28.17;;;;;;;;;;4963889;29;20541;-94
2021/10/23 04:46:27;;;;;;;100.00;29.83;;;;;;;;;;4965030;29;20502;-95
2021/10/23 04:48:54;;;;;;;100.43;29.47;;;;;;;;;;4964049;29;20450;-94
2021/10/23 04:51:20;;;;;;;95.67;28.20;;;;;;;;;;4962228;29;20490;-94
2021/10/23 04:53:47;;;;;;;98.33;28.47;;;;;;;;;;4964256;29;20624;-94
2021/10/23 04:56:13;;;;;;;97.73;28.20;;;;;;;;;;4964676;29;20463;-93
2021/10/23 04:58:40;;;;;;;93.70;25.90;;;;;;;;;;4965015;29;20466;-93
2021/10/23 05:01:06;;;;;;;98.53;30.77;;;;;;;;;;4965608;29;20459;-94
2021/10/23 05:03:34;;;;;;;106.27;32.03;;;;;;;;;;4964644;29;20458;-94
2021/10/23 05:06:03;;;;;;;102.90;31.27;;;;;;;;;;4965630;28;20495;-94
2021/10/23 05:08:30;;;;;;;102.30;30.67;;;;;;;;;;4972304;28;20447;-94
2021/10/23 05:10:57;;;;;;;101.93;29.23;;;;;;;;;;4952523;29;20447;-94
2021/10/23 05:13:23;;;;;;;103.40;30.43;;;;;;;;;;4966859;28;20442;-94
2021/10/23 05:15:50;;;;;;;98.53;28.20;;;;;;;;;;4974978;28;20483;-95
2021/10/23 05:18:17;;;;;;;96.67;28.63;;;;;;;;;;4973018;29;20434;-95
2021/10/23 05:20:45;;;;;;;102.23;30.17;;;;;;;;;;4968128;29;20518;-95
2021/10/23 05:23:12;;;;;;;103.00;32.07;;;;;;;;;;4965938;29;20446;-95
2021/10/23 05:25:38;;;;;;;105.10;31.23;;;;;;;;;;4966275;28;20454;-95
2021/10/23 05:28:05;;;;;;;102.20;31.77;;;;;;;;;;4963281;28;20522;-95
2021/10/23 05:30:32;;;;;;;107.97;32.63;;;;;;;;;;4965790;29;20450;-96
2021/10/23 05:32:58;;;;;;;105.53;32.87;;;;;;;;;;4964820;29;20509;-94
2021/10/23 05:35:25;;;;;;;120.10;33.73;;;;;;;;;;4963571;29;20521;-94
2021/10/23 05:37:52;;;;;;;118.20;36.40;;;;;;;;;;4965383;29;20455;-94
2021/10/23 05:40:19;;;;;;;111.07;35.53;;;;;;;;;;4963647;29;20450;-94
2021/10/23 05:42:45;;;;;;;129.93;39.27;;;;;;;;;;4963488;29;20458;-94
2021/10/23 05:45:12;;;;;;;113.40;34.63;;;;;;;;;;4963252;29;20537;-94
2021/10/23 05:47:38;;;;;;;167.03;40.03;;;;;;;;;;4963611;29;20450;-94
2021/10/23 05:50:07;;;;;;;196.97;37.73;;;;;;;;;;4961888;28;20479;-94
2021/10/23 05:52:33;;;;;;;153.33;35.40;;;;;;;;;;4964142;28;20562;-94
2021/10/23 05:55:01;;;;;;;190.60;37.03;;;;;;;;;;4966611;29;20469;-95
2021/10/23 05:57:28;;;;;;;164.10;35.77;;;;;;;;;;4966203;29;20458;-95
2021/10/23 05:59:54;;;;;;;174.10;36.67;;;;;;;;;;4966092;29;20450;-95
2021/10/23 06:02:24;;;;;;;170.40;38.27;;;;;;;;;;4968474;28;21238;-93
2021/10/23 06:04:52;;;;;;;145.93;36.87;;;;;;;;;;4986286;28;20541;-95
2021/10/23 06:07:18;;;;;;;136.40;39.37;;;;;;;;;;4969512;29;20462;-96
2021/10/23 06:09:46;;;;;;;136.77;38.87;;;;;;;;;;4966131;29;20885;-96
2021/10/23 06:12:14;;;;;;;132.33;39.00;;;;;;;;;;4967296;29;20522;-96
2021/10/23 06:14:43;;;;;;;156.63;47.20;;;;;;;;;;4967831;29;20447;-96
2021/10/23 06:17:09;;;;;;;136.43;44.90;;;;;;;;;;4967525;29;20508;-95
2021/10/23 06:19:37;;;;;;;121.53;40.47;;;;;;;;;;4968005;29;20480;-95
2021/10/23 06:22:04;;;;;;;126.97;39.60;;;;;;;;;;4962988;29;20533;-95
2021/10/23 06:24:31;;;;;;;119.47;39.10;;;;;;;;;;4966421;29;20484;-96
2021/10/23 06:26:57;;;;;;;115.80;37.90;;;;;;;;;;4966746;28;20450;-95
2021/10/23 06:29:25;;;;;;;113.83;36.87;;;;;;;;;;4965560;29;20515;-96
2021/10/23 06:31:52;;;;;;;125.43;39.50;;;;;;;;;;4965362;29;21067;-96
2021/10/23 06:34:19;;;;;;;110.10;37.73;;;;;;;;;;4963916;29;21377;-96
2021/10/23 06:36:45;;;;;;;116.27;37.13;;;;;;;;;;4962170;28;20474;-95
2021/10/23 06:39:12;;;;;;;113.13;34.90;;;;;;;;;;4969392;28;20459;-94
2021/10/23 06:41:38;;;;;;;112.03;36.00;;;;;;;;;;4974534;28;20451;-95
2021/10/23 06:44:06;;;;;;;109.47;34.53;;;;;;;;;;4971722;28;20516;-94
2021/10/23 06:46:34;;;;;;;112.57;35.47;;;;;;;;;;4973029;28;20448;-95
2021/10/23 06:49:00;;;;;;;109.87;33.70;;;;;;;;;;4973581;28;20453;-94
2021/10/23 06:51:27;;;;;;;107.17;35.00;;;;;;;;;;4969368;28;20496;-94
2021/10/23 06:53:55;;;;;;;108.13;32.40;;;;;;;;;;4975130;28;20476;-94
2021/10/23 06:56:21;;;;;;;112.17;33.60;;;;;;;;;;4975634;28;20443;-94
2021/10/23 06:58:48;;;;;;;104.07;33.17;;;;;;;;;;4976076;28;20463;-95
2021/10/23 07:01:14;;;;;;;104.17;32.70;;;;;;;;;;4985075;28;20456;-94
2021/10/23 07:03:42;;;;;;;103.97;33.77;;;;;;;;;;4984885;28;20518;-96
2021/10/23 07:06:09;;;;;;;112.10;34.70;;;;;;;;;;4977295;28;20465;-96
2021/10/23 07:08:38;;;;;;;109.17;36.90;;;;;;;;;;4969068;29;20468;-96
2021/10/23 07:11:04;;;;;;;109.50;35.13;;;;;;;;;;4971079;28;20470;-96
2021/10/23 07:13:31;;;;;;;103.47;33.87;;;;;;;;;;4966661;28;20492;-96
2021/10/23 07:15:57;;;;;;;108.10;35.80;;;;;;;;;;4970003;28;20453;-96
2021/10/23 07:18:25;;;;;;;106.83;34.27;;;;;;;;;;4969284;29;20475;-96
2021/10/23 07:20:53;;;;;;;104.13;34.30;;;;;;;;;;4967587;28;20474;-96
2021/10/23 07:23:20;;;;;;;106.13;34.40;;;;;;;;;;4967072;29;20457;-96
2021/10/23 07:25:47;;;;;;;101.30;33.10;;;;;;;;;;4965641;29;20451;-96
2021/10/23 07:28:13;;;;;;;109.87;35.40;;;;;;;;;;4965921;29;20456;-95
2021/10/23 07:30:40;;;;;;;114.93;38.43;;;;;;;;;;4964581;29;20449;-96
2021/10/23 07:33:06;;;;;;;107.50;37.83;;;;;;;;;;4966333;29;20484;-96
2021/10/23 07:35:33;;;;;;;113.67;38.87;;;;;;;;;;4969308;28;20457;-96
2021/10/23 07:38:01;;;;;;;114.40;35.47;;;;;;;;;;4970747;28;20982;-96
2021/10/23 07:40:28;;;;;;;110.37;37.10;;;;;;;;;;4973186;28;20446;-96
2021/10/23 07:42:55;;;;;;;115.60;38.90;;;;;;;;;;4967614;28;20560;-94
2021/10/23 07:45:21;;;;;;;117.50;39.17;;;;;;;;;;4965082;29;20544;-96
2021/10/23 07:47:48;;;;;;;111.83;37.13;;;;;;;;;;4981593;28;20452;-96
2021/10/23 07:50:15;;;;;;;111.73;37.90;;;;;;;;;;4989256;28;20473;-96
2021/10/23 07:52:46;;;;;;;115.30;39.40;;;;;;;;;;4974084;28;20490;-96
2021/10/23 08:01:19;;;;;;;110.00;37.80;;;;;;;;;;4940048;29;20457;-96
2021/10/23 08:03:46;;;;;;;112.93;38.83;;;;;;;;;;4912243;29;20568;-96
2021/10/23 08:06:13;;;;;;;107.90;36.57;;;;;;;;;;5016067;23;20457;-94
2021/10/23 08:08:40;;;;;;;108.10;36.30;;;;;;;;;;4987496;28;20442;-96
2021/10/23 08:11:08;;;;;;;108.97;35.77;;;;;;;;;;4988174;28;20449;-96
2021/10/23 08:13:52;;;;;;;104.90;36.30;;;;;;;;;;5009125;28;20551;-96
2021/10/23 08:16:20;;;;;;;107.50;34.10;;;;;;;;;;5027877;23;20499;-96
2021/10/23 08:18:47;;;;;;;106.37;35.43;;;;;;;;;;5008505;28;20457;-95
2021/10/23 08:21:13;;;;;;;93.37;29.03;;;;;;;;;;5185991;23;20498;-95
2021/10/23 08:24:01;;;;;;;95.90;30.60;;;;;;;;;;4957692;29;20996;-96
2021/10/23 08:35:08;;;;;;;99.67;31.30;;;;;;;;;;4949209;29;20487;-96
2021/10/23 08:37:35;;;;;;;96.43;29.60;;;;;;;;;;4942269;29;20512;-95
2021/10/23 08:40:01;;;;;;;93.43;29.43;;;;;;;;;;4930873;29;20425;-96
2021/10/23 08:42:28;;;;;;;92.93;27.37;;;;;;;;;;4926860;29;20502;-96
2021/10/23 08:44:57;;;;;;;99.50;30.77;;;;;;;;;;5066542;23;20504;-96
2021/10/23 08:47:24;;;;;;;99.50;29.00;;;;;;;;;;5007437;28;20497;-96
2021/10/23 08:49:58;;;;;;;93.93;30.43;;;;;;;;;;5015039;28;20433;-96
2021/10/23 08:52:30;;;;;;;99.93;30.77;;;;;;;;;;5004838;28;20492;-96
2021/10/23 08:54:56;;;;;;;92.73;27.83;;;;;;;;;;5004304;28;20975;-95
2021/10/23 08:57:25;;;;;;;91.13;28.67;;;;;;;;;;4989956;28;20450;-95
2021/10/23 08:59:51;;;;;;;91.33;27.47;;;;;;;;;;5001795;28;20457;-95
2021/10/23 09:02:19;;;;;;;88.00;28.73;;;;;;;;;;4992528;28;20455;-95
2021/10/23 09:04:46;;;;;;;94.20;28.40;;;;;;;;;;4987265;28;20449;-94
2021/10/23 09:07:13;;;;;;;90.33;29.00;;;;;;;;;;4996645;28;20466;-95
2021/10/23 09:09:49;;;;;;;89.77;27.20;;;;;;;;;;5002125;28;20459;-94
2021/10/23 09:12:22;;;;;;;88.30;27.03;;;;;;;;;;4998279;28;20434;-96
2021/10/23 09:14:58;;;;;;;90.90;28.50;;;;;;;;;;4983242;28;20590;-95
2021/10/23 09:17:24;;;;;;;90.13;28.53;;;;;;;;;;4984033;28;21444;-95
2021/10/23 09:19:51;;;;;;;93.63;31.37;;;;;;;;;;4978147;28;20450;-93
2021/10/23 09:22:22;;;;;;;91.37;27.73;;;;;;;;;;5003977;28;20537;-94
2021/10/23 09:24:51;;;;;;;89.93;28.30;;;;;;;;;;5002564;28;20479;-95
2021/10/23 09:27:19;;;;;;;92.37;29.67;;;;;;;;;;5004421;28;20459;-94
2021/10/23 09:29:46;;;;;;;92.00;30.13;;;;;;;;;;5006675;28;21016;-95
2021/10/23 09:32:12;;;;;;;93.30;29.90;;;;;;;;;;5007058;28;20484;-93
2021/10/23 09:34:39;;;;;;;90.13;28.90;;;;;;;;;;5006231;28;20473;-94
2021/10/23 09:37:06;;;;;;;90.80;28.93;;;;;;;;;;5004472;28;20470;-95
2021/10/23 09:39:33;;;;;;;97.23;29.33;;;;;;;;;;5006874;28;20457;-95
2021/10/23 09:42:05;;;;;;;88.70;26.93;;;;;;;;;;4989301;28;20504;-96
2021/10/23 09:44:32;;;;;;;88.90;28.33;;;;;;;;;;5006164;28;20488;-95
2021/10/23 09:46:58;;;;;;;92.20;27.00;;;;;;;;;;5001153;28;20970;-94
2021/10/23 09:49:25;;;;;;;91.10;26.97;;;;;;;;;;5000051;28;20464;-95
2021/10/23 09:52:03;;;;;;;86.97;27.77;;;;;;;;;;5005811;28;20524;-94
2021/10/23 09:54:29;;;;;;;87.90;26.90;;;;;;;;;;5004837;28;20488;-95
2021/10/23 09:56:56;;;;;;;85.80;26.40;;;;;;;;;;5005032;28;20445;-94
2021/10/23 09:59:27;;;;;;;91.73;27.27;;;;;;;;;;4992379;28;20470;-94
2021/10/23 10:01:56;;;;;;;87.53;25.93;;;;;;;;;;4983076;28;20454;-95
2021/10/23 10:04:24;;;;;;;83.37;24.83;;;;;;;;;;4984659;28;20457;-96
2021/10/23 10:06:51;;;;;;;82.83;24.93;;;;;;;;;;4988419;28;20458;-95
2021/10/23 10:09:19;;;;;;;83.97;24.97;;;;;;;;;;5007375;28;20471;-94
2021/10/23 10:11:47;;;;;;;83.23;24.37;;;;;;;;;;5006096;28;20931;-95
2021/10/23 10:14:14;;;;;;;81.13;25.10;;;;;;;;;;5005775;28;20989;-95
2021/10/23 10:16:45;;;;;;;82.23;24.70;;;;;;;;;;5004700;28;20508;-96
2021/10/23 10:19:22;;;;;;;81.80;24.47;;;;;;;;;;5008484;28;20445;-96
2021/10/23 10:21:50;;;;;;;82.87;24.00;;;;;;;;;;5009707;28;20446;-94
2021/10/23 10:24:19;;;;;;;78.27;22.83;;;;;;;;;;5010040;28;20477;-95
2021/10/23 10:27:01;;;;;;;83.10;24.00;;;;;;;;;;5009688;28;20491;-96
2021/10/23 10:29:40;;;;;;;78.47;21.80;;;;;;;;;;5008893;28;20488;-96
2021/10/23 10:32:35;;;;;;;79.80;23.33;;;;;;;;;;5003626;28;20445;-95
2021/10/23 10:35:21;;;;;;;79.60;22.63;;;;;;;;;;5005828;28;20476;-95
2021/10/23 10:37:53;;;;;;;80.27;22.60;;;;;;;;;;5003771;28;20473;-93
2021/10/23 10:40:43;;;;;;;78.17;22.00;;;;;;;;;;5003360;28;20454;-95
2021/10/23 10:43:09;;;;;;;81.10;23.07;;;;;;;;;;5006305;28;20496;-94
2021/10/23 10:45:37;;;;;;;81.10;21.53;;;;;;;;;;5006179;28;20489;-94
2021/10/23 10:48:13;;;;;;;82.60;22.13;;;;;;;;;;5005575;28;20935;-95
2021/10/23 10:50:40;;;;;;;80.77;23.60;;;;;;;;;;5003972;28;20451;-95
2021/10/23 10:53:20;;;;;;;82.37;22.47;;;;;;;;;;5008119;28;20493;-95
2021/10/23 10:55:48;;;;;;;80.07;22.47;;;;;;;;;;5009967;28;20971;-96
2021/10/23 10:58:17;;;;;;;81.43;24.20;;;;;;;;;;5013153;28;20459;-96
2021/10/23 11:01:12;;;;;;;79.43;23.30;;;;;;;;;;5005534;28;20458;-95
2021/10/23 11:03:43;;;;;;;80.37;23.23;;;;;;;;;;5002464;28;21033;-94
2021/10/23 11:06:28;;;;;;;82.73;24.23;;;;;;;;;;5002727;28;20526;-95
2021/10/23 11:09:10;;;;;;;85.10;22.97;;;;;;;;;;4999692;28;20503;-92
2021/10/23 11:11:51;;;;;;;79.97;24.20;;;;;;;;;;4984914;28;20505;-93
2021/10/23 11:14:33;;;;;;;83.60;22.67;;;;;;;;;;5002650;28;21017;-94
2021/10/23 11:17:14;;;;;;;79.53;21.43;;;;;;;;;;5002242;28;20543;-95
2021/10/23 11:19:42;;;;;;;81.63;23.53;;;;;;;;;;5003995;28;20446;-94
2021/10/23 11:22:11;;;;;;;81.80;23.10;;;;;;;;;;5003955;28;20554;-94
2021/10/23 11:24:39;;;;;;;82.20;22.90;;;;;;;;;;5004814;28;20455;-95
2021/10/23 11:27:05;;;;;;;81.37;23.73;;;;;;;;;;5003114;28;20458;-94
2021/10/23 11:29:32;;;;;;;78.30;22.47;;;;;;;;;;5002323;28;20511;-94
2021/10/23 11:31:59;;;;;;;83.70;22.73;;;;;;;;;;5037177;23;21319;-94
2021/10/23 11:34:27;;;;;;;79.07;22.50;;;;;;;;;;5015551;28;20516;-94
2021/10/23 11:37:00;;;;;;;82.13;22.60;;;;;;;;;;5004011;28;20483;-94
2021/10/23 11:39:27;;;;;;;78.97;23.77;;;;;;;;;;5004075;28;20504;-96
2021/10/23 11:42:13;;;;;;;79.33;23.83;;;;;;;;;;5005644;28;20512;-94
2021/10/23 11:44:40;;;;;;;78.13;21.57;;;;;;;;;;5004366;28;20863;-95
2021/10/23 11:47:06;;;;;;;83.40;23.47;;;;;;;;;;5010171;28;20527;-96
2021/10/23 11:49:33;;;;;;;80.57;22.67;;;;;;;;;;5009207;28;20482;-96
2021/10/23 11:52:01;;;;;;;81.30;22.90;;;;;;;;;;5005935;28;20594;-95
2021/10/23 11:54:28;;;;;;;80.00;22.73;;;;;;;;;;5001958;28;20552;-94
2021/10/23 11:56:54;;;;;;;78.47;21.60;;;;;;;;;;4986464;28;20481;-96
2021/10/23 11:59:31;;;;;;;78.23;22.10;;;;;;;;;;4988396;28;20480;-93
2021/10/23 12:01:57;;;;;;;76.80;19.80;;;;;;;;;;4991823;28;20440;-94
2021/10/23 12:04:30;;;;;;;80.70;21.40;;;;;;;;;;4996558;28;20465;-94
2021/10/23 12:06:58;;;;;;;78.60;21.37;;;;;;;;;;4988613;28;20457;-95
2021/10/23 12:09:28;;;;;;;78.33;23.47;;;;;;;;;;4978271;28;20508;-95
2021/10/23 12:12:05;;;;;;;76.47;20.93;;;;;;;;;;5001981;28;20502;-95
2021/10/23 12:14:31;;;;;;;81.97;20.23;;;;;;;;;;5003169;28;20492;-95
2021/10/23 12:16:59;;;;;;;80.10;21.40;;;;;;;;;;5005771;28;20485;-96
2021/10/23 12:19:33;;;;;;;78.33;21.30;;;;;;;;;;5005745;28;20450;-95
2021/10/23 12:22:07;;;;;;;78.00;20.63;;;;;;;;;;5004963;28;20461;-95
2021/10/23 12:24:37;;;;;;;76.27;20.70;;;;;;;;;;5005379;28;20460;-95
2021/10/23 12:27:07;;;;;;;79.33;21.80;;;;;;;;;;5002822;28;20460;-96
2021/10/23 12:29:42;;;;;;;77.87;22.63;;;;;;;;;;5008124;28;20503;-96
2021/10/23 12:32:12;;;;;;;78.27;20.90;;;;;;;;;;5008924;28;20567;-96
2021/10/23 12:34:56;;;;;;;78.50;21.70;;;;;;;;;;5004173;28;20499;-94
2021/10/23 12:37:32;;;;;;;83.40;22.37;;;;;;;;;;5001690;28;20955;-94
2021/10/23 12:40:04;;;;;;;76.87;21.57;;;;;;;;;;5001112;28;20460;-94
2021/10/23 12:42:30;;;;;;;77.40;22.13;;;;;;;;;;5001641;28;20489;-93
2021/10/23 12:44:57;;;;;;;79.10;22.10;;;;;;;;;;5001594;28;20472;-95
2021/10/23 12:47:23;;;;;;;74.80;20.87;;;;;;;;;;5002392;28;21055;-94
2021/10/23 12:49:50;;;;;;;75.47;22.20;;;;;;;;;;5001896;28;20460;-94
2021/10/23 12:52:16;;;;;;;77.40;20.37;;;;;;;;;;5001440;28;20849;-94
2021/10/23 12:54:43;;;;;;;78.90;22.00;;;;;;;;;;5001390;28;20500;-95
2021/10/23 12:57:11;;;;;;;79.17;21.83;;;;;;;;;;5002750;28;20468;-94
2021/10/23 12:59:37;;;;;;;78.27;22.80;;;;;;;;;;5006508;28;20449;-94
2021/10/23 13:02:09;;;;;;;73.60;21.03;;;;;;;;;;5012465;28;20818;-96
2021/10/23 13:04:36;;;;;;;79.20;22.93;;;;;;;;;;5010614;28;20451;-95
2021/10/23 13:07:02;;;;;;;78.13;22.63;;;;;;;;;;5009158;28;20452;-96
2021/10/23 13:09:29;;;;;;;77.60;24.27;;;;;;;;;;5008332;28;20456;-95
2021/10/23 13:11:57;;;;;;;78.37;25.00;;;;;;;;;;5008265;28;20448;-95
2021/10/23 13:14:28;;;;;;;75.97;20.97;;;;;;;;;;5005141;28;20493;-95
2021/10/23 13:16:55;;;;;;;80.73;22.77;;;;;;;;;;5015167;28;20440;-95
2021/10/23 13:19:27;;;;;;;78.23;23.40;;;;;;;;;;5011359;28;20441;-95
2021/10/23 13:24:28;;;;;;;76.47;23.13;;;;;;;;;;5350024;23;20470;-95
2021/10/23 13:30:13;;;;;;;78.00;23.27;;;;;;;;;;4953876;28;20479;-96
2021/10/23 13:32:47;;;;;;;81.33;22.73;;;;;;;;;;5009788;28;20484;-95
2021/10/23 13:35:13;;;;;;;78.40;23.77;;;;;;;;;;5006643;28;20491;-96
2021/10/23 13:37:42;;;;;;;80.30;23.33;;;;;;;;;;5007000;28;20464;-95
2021/10/23 13:40:12;;;;;;;79.90;23.23;;;;;;;;;;5004562;28;20464;-94
2021/10/23 13:45:35;;;;;;;78.07;21.47;;;;;;;;;;5006970;28;20459;-96
2021/10/23 13:48:03;;;;;;;75.47;20.10;;;;;;;;;;4991584;28;20452;-94
2021/10/23 13:56:34;;;;;;;75.27;19.60;;;;;;;;;;5010708;28;20474;-95
2021/10/23 14:05:18;;;;;;;74.30;19.40;;;;;;;;;;5021713;28;20430;-96
2021/10/23 14:07:47;;;;;;;75.20;20.40;;;;;;;;;;5024154;28;20450;-95
2021/10/23 14:10:15;;;;;;;78.90;19.90;;;;;;;;;;5025009;28;20474;-95
2021/10/23 14:12:53;;;;;;;76.47;19.27;;;;;;;;;;5013284;28;20479;-96
2021/10/23 14:15:20;;;;;;;76.90;20.03;;;;;;;;;;5025449;23;20500;-94
2021/10/23 14:17:47;;;;;;;77.40;20.17;;;;;;;;;;5066991;23;20564;-96
2021/10/23 14:20:14;;;;;;;75.37;20.83;;;;;;;;;;4986172;28;20461;-93
2021/10/23 14:22:42;;;;;;;78.70;21.50;;;;;;;;;;4992465;28;20474;-92
2021/10/23 14:25:10;;;;;;;75.90;20.87;;;;;;;;;;4981523;28;20520;-93
2021/10/23 14:27:57;;;;;;;74.77;21.20;;;;;;;;;;4967451;28;21453;-94
2021/10/23 14:30:26;;;;;;;78.43;22.50;;;;;;;;;;4972715;28;20471;-93
2021/10/23 14:32:53;;;;;;;79.27;21.70;;;;;;;;;;4980322;28;20521;-91
2021/10/23 14:35:20;;;;;;;78.43;22.40;;;;;;;;;;4966890;28;20505;-92
2021/10/23 14:37:48;;;;;;;78.27;22.20;;;;;;;;;;4985558;28;20465;-92
2021/10/23 14:40:14;;;;;;;81.50;22.40;;;;;;;;;;4984956;28;20496;-91
2021/10/23 14:42:41;;;;;;;77.90;22.27;;;;;;;;;;4985214;28;20456;-94
2021/10/23 14:45:08;;;;;;;84.93;22.60;;;;;;;;;;4984945;28;21039;-91
2021/10/23 14:47:34;;;;;;;82.60;23.20;;;;;;;;;;4986180;28;20463;-91
2021/10/23 14:50:01;;;;;;;86.20;23.87;;;;;;;;;;4984783;28;20453;-92
2021/10/23 14:52:27;;;;;;;89.27;27.30;;;;;;;;;;4984730;28;20493;-93
2021/10/23 14:54:55;;;;;;;97.47;30.37;;;;;;;;;;4985010;28;20550;-92
2021/10/23 14:57:21;;;;;;;80.27;23.67;;;;;;;;;;4985554;28;20503;-91